createdAt,value
2024-03-13T00:00:37.147Z,86.00
2024-03-13T00:03:04.516Z,86.00
2024-03-13T00:05:31.280Z,86.00
2024-03-13T00:07:58.655Z,86.00
2024-03-13T00:10:28.022Z,85.90
2024-03-13T00:12:55.638Z,85.80
2024-03-13T00:15:22.537Z,85.90
2024-03-13T00:17:49.534Z,85.80
2024-03-13T00:20:17.480Z,85.80
2024-03-13T00:22:46.188Z,85.90
2024-03-13T00:25:13.971Z,85.90
2024-03-13T00:27:47.017Z,85.80
2024-03-13T00:30:14.191Z,85.90
2024-03-13T00:32:41.422Z,85.80
2024-03-13T00:35:08.747Z,85.70
2024-03-13T00:37:36.854Z,85.60
2024-03-13T00:40:04.945Z,85.50
2024-03-13T00:42:32.798Z,85.30
2024-03-13T00:44:59.676Z,85.20
2024-03-13T00:47:28.087Z,85.10
2024-03-13T00:49:54.721Z,85.20
2024-03-13T00:52:21.748Z,85.20
2024-03-13T00:54:48.858Z,85.00
2024-03-13T00:57:19.047Z,84.90
2024-03-13T00:59:46.365Z,84.90
2024-03-13T01:02:14.434Z,84.80
2024-03-13T01:04:44.214Z,84.80
2024-03-13T01:07:11.379Z,84.70
2024-03-13T01:09:39.609Z,84.70
2024-03-13T01:12:07.581Z,84.50
2024-03-13T01:14:34.657Z,84.70
2024-03-13T01:17:04.122Z,84.80
2024-03-13T01:19:35.747Z,84.80
2024-03-13T01:22:23.934Z,84.80
2024-03-13T01:24:50.797Z,84.80
2024-03-13T01:27:18.432Z,84.90
2024-03-13T01:29:49.102Z,84.90
2024-03-13T01:32:16.738Z,84.90
2024-03-13T01:34:43.546Z,85.00
2024-03-13T01:37:28.867Z,84.80
2024-03-13T01:39:55.772Z,84.80
2024-03-13T01:42:41.022Z,84.80
2024-03-13T01:45:31.928Z,84.80
2024-03-13T01:48:18.493Z,84.80
2024-03-13T01:51:04.285Z,84.90
2024-03-13T01:53:50.091Z,85.30
2024-03-13T01:56:24.590Z,85.20
2024-03-13T01:59:04.850Z,85.30
2024-03-13T02:01:50.797Z,85.40
2024-03-13T02:04:18.331Z,85.30
2024-03-13T02:06:47.822Z,85.30
2024-03-13T02:09:15.288Z,85.40
2024-03-13T02:11:42.926Z,85.30
2024-03-13T02:14:09.843Z,85.30
2024-03-13T02:16:36.573Z,85.30
2024-03-13T02:19:04.163Z,85.40
2024-03-13T02:21:34.298Z,85.40
2024-03-13T02:24:01.152Z,85.50
2024-03-13T02:26:28.038Z,85.40
2024-03-13T02:28:57.936Z,85.60
2024-03-13T02:31:24.723Z,85.60
2024-03-13T02:33:52.284Z,85.50
2024-03-13T02:36:18.929Z,85.50
2024-03-13T02:38:47.668Z,85.50
2024-03-13T02:41:14.893Z,85.90
2024-03-13T02:43:42.941Z,85.80
2024-03-13T02:46:10.088Z,85.80
2024-03-13T02:48:37.980Z,85.70
2024-03-13T02:51:05.332Z,85.80
2024-03-13T02:53:32.833Z,85.70
2024-03-13T02:55:59.788Z,85.60
2024-03-13T02:58:26.615Z,85.60
2024-03-13T03:00:56.149Z,85.60
2024-03-13T03:03:23.042Z,85.40
2024-03-13T03:05:49.931Z,85.40
2024-03-13T03:08:16.603Z,85.60
2024-03-13T03:10:43.394Z,85.30
2024-03-13T03:13:11.818Z,85.20
2024-03-13T03:15:40.161Z,85.20
2024-03-13T03:18:07.845Z,85.10
2024-03-13T03:20:34.698Z,85.20
2024-03-13T03:23:01.545Z,85.20
2024-03-13T03:25:30.291Z,85.20
2024-03-13T03:28:00.295Z,85.20
2024-03-13T03:30:27.326Z,85.20
2024-03-13T03:32:57.012Z,85.10
2024-03-13T03:35:26.477Z,85.00
2024-03-13T03:37:53.303Z,85.10
2024-03-13T03:40:20.385Z,85.00
2024-03-13T03:42:49.894Z,85.00
2024-03-13T03:45:18.018Z,84.90
2024-03-13T03:47:46.276Z,84.90
2024-03-13T03:50:16.294Z,84.90
2024-03-13T03:52:43.976Z,85.00
2024-03-13T03:55:10.828Z,84.80
2024-03-13T03:57:37.589Z,84.90
2024-03-13T04:00:09.364Z,85.00
2024-03-13T04:02:36.022Z,85.20
2024-03-13T04:05:03.586Z,85.30
2024-03-13T04:07:30.297Z,85.20
2024-03-13T04:09:56.990Z,85.20
2024-03-13T04:12:23.793Z,85.30
2024-03-13T04:14:50.484Z,85.60
2024-03-13T04:17:18.549Z,85.70
2024-03-13T04:19:45.328Z,85.90
2024-03-13T04:22:14.317Z,86.10
2024-03-13T04:24:43.548Z,86.10
2024-03-13T04:27:10.292Z,86.10
2024-03-13T04:29:44.092Z,86.20
2024-03-13T04:32:15.053Z,86.20
2024-03-13T04:34:41.885Z,86.00
2024-03-13T04:37:08.707Z,86.00
2024-03-13T04:39:36.726Z,86.00
2024-03-13T04:42:04.665Z,85.90
2024-03-13T04:44:31.328Z,85.80
2024-03-13T04:46:58.645Z,85.70
2024-03-13T04:49:25.600Z,85.70
2024-03-13T04:51:52.353Z,85.90
2024-03-13T04:54:19.108Z,86.00
2024-03-13T04:56:45.900Z,85.90
2024-03-13T04:59:13.507Z,85.80
2024-03-13T05:01:40.432Z,85.80
2024-03-13T05:04:07.364Z,85.90
2024-03-13T05:06:34.423Z,85.90
2024-03-13T05:09:01.108Z,86.00
2024-03-13T05:11:29.372Z,86.00
2024-03-13T05:13:56.151Z,85.90
2024-03-13T05:16:22.927Z,85.90
2024-03-13T05:18:50.095Z,86.10
2024-03-13T05:21:17.402Z,86.00
2024-03-13T05:23:45.363Z,85.90
2024-03-13T05:26:12.744Z,86.10
2024-03-13T05:28:39.462Z,85.80
2024-03-13T05:31:08.977Z,85.50
2024-03-13T05:33:35.997Z,85.60
2024-03-13T05:36:04.968Z,85.40
2024-03-13T05:38:31.858Z,85.40
2024-03-13T05:40:59.238Z,85.20
2024-03-13T05:43:27.070Z,85.00
2024-03-13T05:45:54.832Z,84.60
2024-03-13T05:48:21.701Z,84.60
2024-03-13T05:50:49.126Z,84.20
2024-03-13T05:53:15.976Z,84.20
2024-03-13T05:55:43.737Z,84.30
2024-03-13T05:58:10.623Z,83.90
2024-03-13T06:00:41.986Z,84.30
2024-03-13T06:03:08.725Z,84.60
2024-03-13T06:05:37.055Z,83.80
2024-03-13T06:08:03.797Z,83.20
2024-03-13T06:10:31.226Z,83.10
2024-03-13T06:12:58.336Z,83.60
2024-03-13T06:15:25.229Z,83.40
2024-03-13T06:17:53.193Z,82.30
2024-03-13T06:20:20.404Z,82.20
2024-03-13T06:22:47.304Z,82.30
2024-03-13T06:25:15.298Z,81.90
2024-03-13T06:27:44.844Z,81.80
2024-03-13T06:30:14.208Z,81.60
2024-03-13T06:32:41.748Z,82.10
2024-03-13T06:35:08.575Z,81.90
2024-03-13T06:37:37.083Z,80.50
2024-03-13T06:40:05.503Z,81.10
2024-03-13T06:42:32.887Z,81.00
2024-03-13T06:44:59.626Z,80.90
2024-03-13T06:47:26.559Z,81.00
2024-03-13T06:49:53.288Z,81.10
2024-03-13T06:52:20.219Z,80.80
2024-03-13T06:54:47.203Z,80.70
2024-03-13T06:57:14.051Z,80.00
2024-03-13T06:59:43.480Z,80.20
2024-03-13T07:02:14.747Z,80.00
2024-03-13T07:04:41.710Z,78.90
2024-03-13T07:07:08.885Z,79.60
2024-03-13T07:09:38.437Z,79.40
2024-03-13T07:12:05.882Z,78.90
2024-03-13T07:14:32.700Z,79.10
2024-03-13T07:16:59.459Z,78.50
2024-03-13T07:19:26.279Z,78.40
2024-03-13T07:21:53.700Z,77.70
2024-03-13T07:24:20.683Z,77.00
2024-03-13T07:26:47.451Z,76.60
2024-03-13T07:29:14.117Z,75.60
2024-03-13T07:31:41.145Z,75.40
2024-03-13T07:34:11.793Z,75.90
2024-03-13T07:36:41.452Z,75.70
2024-03-13T07:39:11.990Z,75.10
2024-03-13T07:41:41.273Z,74.70
2024-03-13T07:44:09.579Z,75.20
2024-03-13T07:46:38.164Z,74.20
2024-03-13T07:49:05.063Z,74.60
2024-03-13T07:51:32.250Z,73.70
2024-03-13T07:53:59.909Z,73.20
2024-03-13T07:56:26.648Z,74.50
2024-03-13T07:58:54.389Z,73.60
2024-03-13T08:01:22.071Z,73.90
2024-03-13T08:03:49.338Z,73.60
2024-03-13T09:06:42.046Z,67.80
2024-03-13T09:09:09.333Z,68.50
2024-03-13T09:11:36.255Z,69.00
2024-03-13T09:14:05.076Z,70.30
2024-03-13T09:16:33.351Z,70.40
2024-03-13T09:19:05.511Z,71.30
2024-03-13T09:21:32.386Z,70.90
2024-03-13T09:24:00.124Z,70.10
2024-03-13T09:26:28.078Z,70.30
2024-03-13T09:28:57.302Z,70.00
2024-03-13T09:31:25.861Z,69.40
2024-03-13T09:33:52.983Z,69.60
2024-03-13T09:36:20.246Z,69.30
2024-03-13T09:38:49.040Z,69.40
2024-03-13T09:41:18.938Z,70.80
2024-03-13T09:43:46.359Z,71.20
2024-03-13T09:46:14.987Z,69.70
2024-03-13T09:48:44.314Z,71.30
2024-03-13T09:51:12.441Z,71.70
2024-03-13T09:53:42.681Z,70.70
2024-03-13T09:56:16.044Z,70.00
2024-03-13T09:58:46.980Z,68.30
2024-03-13T10:01:17.828Z,68.00
2024-03-13T10:03:53.447Z,67.70
2024-03-13T10:06:24.700Z,67.00
2024-03-13T10:08:52.940Z,67.80
2024-03-13T10:11:20.784Z,67.90
2024-03-13T10:13:47.588Z,67.90
2024-03-13T10:16:14.326Z,68.20
2024-03-13T10:18:51.114Z,66.90
2024-03-13T10:21:26.581Z,66.60
2024-03-13T10:23:56.857Z,64.40
2024-03-13T10:26:25.181Z,65.20
2024-03-13T10:28:52.113Z,64.90
2024-03-13T10:31:19.119Z,64.40
2024-03-13T10:33:47.605Z,63.40
2024-03-13T10:36:15.639Z,62.50
2024-03-13T10:38:43.023Z,61.60
2024-03-13T10:41:13.093Z,61.00
2024-03-13T10:43:42.306Z,61.80
2024-03-13T10:46:11.896Z,61.90
2024-03-13T10:48:40.663Z,62.60
2024-03-13T10:51:13.298Z,62.70
2024-03-13T10:53:41.073Z,61.00
2024-03-13T10:56:17.473Z,62.10
2024-03-13T10:58:44.468Z,62.10
2024-03-13T11:01:17.584Z,61.00
2024-03-13T11:03:47.936Z,62.30
2024-03-13T11:06:16.554Z,62.70
2024-03-13T11:08:43.666Z,61.10
2024-03-13T11:11:20.923Z,59.90
2024-03-13T11:13:55.348Z,59.50
2024-03-13T11:16:23.207Z,59.70
2024-03-13T11:18:51.688Z,61.40
2024-03-13T11:21:51.593Z,60.50
2024-03-13T11:24:26.963Z,61.10
2024-03-13T11:26:54.195Z,61.70
2024-03-13T11:29:28.571Z,62.60
2024-03-13T11:31:58.246Z,62.10
2024-03-13T11:34:25.559Z,62.70
2024-03-13T11:36:54.034Z,62.30
2024-03-13T11:39:26.100Z,63.30
2024-03-13T11:41:53.215Z,62.80
2024-03-13T11:44:20.396Z,61.80
2024-03-13T11:46:51.055Z,61.50
2024-03-13T11:49:19.633Z,61.70
2024-03-13T11:52:03.293Z,61.90
2024-03-13T11:54:36.361Z,63.50
2024-03-13T11:57:13.674Z,63.40
2024-03-13T11:59:45.094Z,64.40
2024-03-13T12:02:35.333Z,66.10
2024-03-13T12:05:06.581Z,64.00
2024-03-13T12:07:45.667Z,63.40
2024-03-13T12:10:12.442Z,62.50
2024-03-13T12:12:41.148Z,61.00
2024-03-13T12:15:09.362Z,61.70
2024-03-13T12:17:36.301Z,61.30
2024-03-13T12:20:04.881Z,60.80
2024-03-13T12:22:31.818Z,59.20
2024-03-13T12:24:59.201Z,60.50
2024-03-13T12:27:26.366Z,57.70
2024-03-13T12:29:55.707Z,59.90
2024-03-13T12:32:22.690Z,58.30
2024-03-13T12:34:49.486Z,58.40
2024-03-13T12:37:18.030Z,57.70
2024-03-13T12:39:47.421Z,59.80
2024-03-13T12:42:14.706Z,58.00
2024-03-13T12:44:41.691Z,58.50
2024-03-13T12:47:13.673Z,56.90
2024-03-13T12:49:42.586Z,58.50
2024-03-13T12:52:12.483Z,57.90
2024-03-13T12:54:39.076Z,57.40
2024-03-13T12:57:12.286Z,58.30
2024-03-13T12:59:46.312Z,58.70
2024-03-13T13:02:14.008Z,58.00
2024-03-13T13:04:45.729Z,58.20
2024-03-13T13:07:13.648Z,59.40
2024-03-13T13:09:40.426Z,58.90
2024-03-13T13:12:14.020Z,57.90
2024-03-13T13:14:44.561Z,57.60
2024-03-13T13:17:13.652Z,57.80
2024-03-13T13:19:40.329Z,57.50
2024-03-13T13:22:07.605Z,59.30
2024-03-13T13:24:34.801Z,58.30
2024-03-13T13:27:02.388Z,59.70
2024-03-13T13:29:30.027Z,60.40
2024-03-13T13:31:58.297Z,60.20
2024-03-13T13:34:25.364Z,60.00
2024-03-13T13:36:52.635Z,61.20
2024-03-13T13:39:21.178Z,63.10
2024-03-13T13:41:48.905Z,62.50
2024-03-13T13:44:15.839Z,62.70
2024-03-13T13:46:42.583Z,62.00
2024-03-13T13:49:12.156Z,61.80
2024-03-13T13:51:39.067Z,61.60
2024-03-13T13:54:05.948Z,61.70
2024-03-13T13:56:32.627Z,61.60
2024-03-13T13:59:00.521Z,60.80
2024-03-13T14:01:27.266Z,61.50
2024-03-13T14:03:54.190Z,63.20
2024-03-13T14:06:23.628Z,62.60
2024-03-13T14:08:50.711Z,63.30
2024-03-13T14:11:17.441Z,63.60
2024-03-13T14:13:45.368Z,62.90
2024-03-13T14:16:12.231Z,62.30
2024-03-13T14:18:39.244Z,62.10
2024-03-13T14:21:06.031Z,61.40
2024-03-13T14:23:33.473Z,61.80
2024-03-13T14:26:00.508Z,61.70
2024-03-13T14:28:27.427Z,62.30
2024-03-13T14:30:56.707Z,62.60
2024-03-13T14:33:24.284Z,61.50
2024-03-13T14:35:51.130Z,62.60
2024-03-13T14:38:17.948Z,62.70
2024-03-13T14:40:45.073Z,63.50
2024-03-13T14:43:12.631Z,64.10
2024-03-13T14:45:42.622Z,63.90
2024-03-13T14:48:09.714Z,63.60
2024-03-13T14:50:37.254Z,63.30
2024-03-13T14:53:13.953Z,63.60
2024-03-13T14:55:40.750Z,63.70
2024-03-13T14:58:07.670Z,63.50
2024-03-13T15:00:34.637Z,64.00
2024-03-13T15:03:02.447Z,63.60
2024-03-13T15:05:32.049Z,62.90
2024-03-13T15:08:01.516Z,63.80
2024-03-13T15:10:28.180Z,63.60
2024-03-13T15:12:55.322Z,64.60
2024-03-13T15:15:22.120Z,64.50
2024-03-13T15:17:52.578Z,64.00
2024-03-13T15:20:19.690Z,63.00
2024-03-13T15:22:46.489Z,63.30
2024-03-13T15:25:15.948Z,64.30
2024-03-13T15:27:42.752Z,64.40
2024-03-13T15:30:14.657Z,64.50
2024-03-13T15:32:43.475Z,65.20
2024-03-13T15:35:10.532Z,65.50
2024-03-13T15:37:37.348Z,65.30
2024-03-13T15:40:12.734Z,64.70
2024-03-13T15:42:41.767Z,65.00
2024-03-13T15:45:11.387Z,64.50
2024-03-13T15:47:38.810Z,64.70
2024-03-13T15:50:10.698Z,64.30
2024-03-13T15:52:41.365Z,65.00
2024-03-13T15:55:08.565Z,65.10
2024-03-13T15:57:36.825Z,66.00
2024-03-13T16:00:10.508Z,66.20
2024-03-13T16:02:38.056Z,67.20
2024-03-13T16:05:07.278Z,67.30
2024-03-13T16:07:36.862Z,67.30
2024-03-13T16:10:05.227Z,67.80
2024-03-13T16:12:33.507Z,68.20
2024-03-13T16:15:00.696Z,68.60
2024-03-13T16:17:28.934Z,68.40
2024-03-13T16:19:56.230Z,68.90
2024-03-13T16:22:23.400Z,69.50
2024-03-13T16:24:50.513Z,69.70
2024-03-13T16:27:17.261Z,69.90
2024-03-13T16:29:44.457Z,70.60
2024-03-13T16:32:12.895Z,70.90
2024-03-13T16:34:44.707Z,71.10
2024-03-13T16:37:12.827Z,71.60
2024-03-13T16:39:39.944Z,71.80
2024-03-13T16:42:06.712Z,72.60
2024-03-13T16:44:33.342Z,72.90
2024-03-13T16:47:00.122Z,73.10
2024-03-13T16:49:26.825Z,73.40
2024-03-13T16:51:54.752Z,73.50
2024-03-13T16:54:23.968Z,73.90
2024-03-13T16:56:52.934Z,73.90
2024-03-13T16:59:19.680Z,74.40
2024-03-13T17:01:47.318Z,74.70
2024-03-13T17:04:14.636Z,75.40
2024-03-13T17:06:43.627Z,75.00
2024-03-13T17:09:10.865Z,75.90
2024-03-13T17:11:37.899Z,75.80
2024-03-13T17:14:05.252Z,75.60
2024-03-13T17:16:31.966Z,75.80
2024-03-13T17:18:59.948Z,75.80
2024-03-13T17:21:26.852Z,76.00
2024-03-13T17:23:53.609Z,76.60
2024-03-13T17:26:21.228Z,76.40
2024-03-13T17:28:48.241Z,76.70
2024-03-13T17:31:17.361Z,76.90
2024-03-13T17:33:44.397Z,77.10
2024-03-13T17:36:16.784Z,77.60
2024-03-13T17:38:43.877Z,77.40
2024-03-13T17:41:11.151Z,77.50
2024-03-13T17:43:37.930Z,77.80
2024-03-13T17:46:05.806Z,77.50
2024-03-13T17:48:32.657Z,77.80
2024-03-13T17:50:59.435Z,77.60
2024-03-13T17:53:26.079Z,77.90
2024-03-13T17:55:52.897Z,78.40
2024-03-13T17:58:19.970Z,78.50
2024-03-13T18:00:47.004Z,78.50
2024-03-13T18:03:14.085Z,78.50
2024-03-13T18:05:40.976Z,78.90
2024-03-13T18:08:08.596Z,79.10
2024-03-13T18:10:38.443Z,79.30
2024-03-13T18:13:05.932Z,79.30
2024-03-13T18:15:32.571Z,79.50
2024-03-13T18:17:59.293Z,79.70
2024-03-13T18:20:27.313Z,79.70
2024-03-13T18:22:55.206Z,79.70
2024-03-13T18:25:24.219Z,79.60
2024-03-13T18:27:50.947Z,79.50
2024-03-13T18:30:20.083Z,79.70
2024-03-13T18:32:48.162Z,80.00
2024-03-13T18:35:16.208Z,80.40
2024-03-13T18:37:43.647Z,80.30
2024-03-13T18:40:20.654Z,80.10
2024-03-13T18:42:47.313Z,80.40
2024-03-13T18:45:14.523Z,80.40
2024-03-13T18:47:43.683Z,80.50
2024-03-13T18:50:12.426Z,80.40
2024-03-13T18:52:48.249Z,80.40
2024-03-13T18:55:16.811Z,80.60
2024-03-13T18:57:43.988Z,80.80
2024-03-13T19:00:14.315Z,81.00
2024-03-13T19:02:41.165Z,81.60
2024-03-13T19:05:14.814Z,81.20
2024-03-13T19:07:49.676Z,81.10
2024-03-13T19:10:16.427Z,81.20
2024-03-13T19:12:43.144Z,81.30
2024-03-13T19:15:10.973Z,81.60
2024-03-13T19:17:37.825Z,82.00
2024-03-13T19:20:04.742Z,81.60
2024-03-13T19:22:32.020Z,81.60
2024-03-13T19:24:58.665Z,82.00
2024-03-13T19:27:25.380Z,82.10
2024-03-13T19:29:52.094Z,82.00
2024-03-13T19:32:18.739Z,82.10
2024-03-13T19:34:47.941Z,82.30
2024-03-13T19:37:15.543Z,82.20
2024-03-13T19:39:42.172Z,82.40
2024-03-13T19:42:08.831Z,82.40
2024-03-13T19:44:35.511Z,82.70
2024-03-13T19:47:02.588Z,82.90
2024-03-13T19:49:29.330Z,82.90
2024-03-13T19:51:55.978Z,82.90
2024-03-13T19:54:23.247Z,83.50
2024-03-13T19:56:52.143Z,83.70
2024-03-13T19:59:18.823Z,83.60
2024-03-13T20:01:45.560Z,83.70
2024-03-13T20:04:13.557Z,83.60
2024-03-13T20:06:44.343Z,83.70
2024-03-13T20:09:15.140Z,83.90
2024-03-13T20:11:42.965Z,84.00
2024-03-13T20:14:14.763Z,84.10
2024-03-13T20:16:44.042Z,83.80
2024-03-13T20:19:11.374Z,83.80
2024-03-13T20:21:38.601Z,84.40
2024-03-13T20:24:05.530Z,84.60
2024-03-13T20:26:32.513Z,84.80
2024-03-13T20:28:59.168Z,85.10
2024-03-13T20:31:25.918Z,85.50
2024-03-13T20:33:52.803Z,85.30
2024-03-13T20:36:20.204Z,85.20
2024-03-13T20:38:50.228Z,85.30
2024-03-13T20:41:16.881Z,85.20
2024-03-13T20:43:46.162Z,85.20
2024-03-13T20:46:17.167Z,85.70
2024-03-13T20:48:44.483Z,85.70
2024-03-13T20:51:11.225Z,85.80
2024-03-13T20:53:37.806Z,86.10
2024-03-13T20:56:06.684Z,86.10
2024-03-13T20:58:36.338Z,86.20
2024-03-13T21:01:03.238Z,86.40
2024-03-13T21:03:29.912Z,86.10
2024-03-13T21:05:57.080Z,86.20
2024-03-13T21:08:25.730Z,86.20
2024-03-13T21:10:52.372Z,86.30
2024-03-13T21:13:19.052Z,86.10
2024-03-13T21:15:53.906Z,86.00
2024-03-13T21:18:47.604Z,85.70
2024-03-13T21:21:14.779Z,85.70
2024-03-13T21:23:41.698Z,85.50
2024-03-13T21:26:08.930Z,85.90
2024-03-13T21:28:36.147Z,85.80
2024-03-13T21:31:03.536Z,85.90
2024-03-13T21:33:30.347Z,86.00
2024-03-13T21:35:57.345Z,86.20
2024-03-13T21:38:24.174Z,86.30
2024-03-13T21:40:50.837Z,86.10
2024-03-13T21:43:17.900Z,86.40
2024-03-13T21:45:46.976Z,86.50
2024-03-13T21:48:13.691Z,86.50
2024-03-13T21:50:43.809Z,86.50
2024-03-13T21:53:14.789Z,86.40
2024-03-13T21:55:41.428Z,86.40
2024-03-13T21:58:09.086Z,86.40
2024-03-13T22:00:35.768Z,86.50
2024-03-13T22:03:02.998Z,86.40
2024-03-13T22:05:29.784Z,86.40
2024-03-13T22:07:56.513Z,86.50
2024-03-13T22:10:25.288Z,86.50
2024-03-13T22:12:52.437Z,86.70
2024-03-13T22:15:19.352Z,86.60
2024-03-13T22:17:46.086Z,86.60
2024-03-13T22:20:12.791Z,86.80
2024-03-13T22:22:39.455Z,87.00
2024-03-13T22:25:08.739Z,87.00
2024-03-13T22:27:35.914Z,86.90
2024-03-13T22:30:04.047Z,87.10
2024-03-13T22:32:33.441Z,87.00
2024-03-13T22:35:00.242Z,87.00
2024-03-13T22:37:26.858Z,87.00
2024-03-13T22:39:53.560Z,87.00
2024-03-13T22:42:20.698Z,86.90
2024-03-13T22:44:48.631Z,86.80
2024-03-13T22:47:16.155Z,86.80
2024-03-13T22:49:44.363Z,86.80
2024-03-13T22:52:11.153Z,86.80
2024-03-13T22:54:38.251Z,86.80
2024-03-13T22:57:04.913Z,86.70
2024-03-13T22:59:31.799Z,86.70
2024-03-13T23:01:58.434Z,86.70
2024-03-13T23:04:25.823Z,86.70
2024-03-13T23:06:52.781Z,86.60
2024-03-13T23:09:20.080Z,86.70
2024-03-13T23:11:49.709Z,86.70
2024-03-13T23:14:19.472Z,86.80
2024-03-13T23:16:47.572Z,86.70
2024-03-13T23:19:15.639Z,86.80
2024-03-13T23:21:42.555Z,86.80
2024-03-13T23:24:09.537Z,86.70
2024-03-13T23:26:37.295Z,86.70
2024-03-13T23:29:03.920Z,86.70
2024-03-13T23:31:30.876Z,86.70
2024-03-13T23:33:57.682Z,86.80
2024-03-13T23:36:24.380Z,86.80
2024-03-13T23:38:51.159Z,86.80
2024-03-13T23:41:17.892Z,86.80
2024-03-13T23:43:45.141Z,86.70
2024-03-13T23:46:16.082Z,86.80
2024-03-13T23:48:43.006Z,86.70
2024-03-13T23:51:12.149Z,86.80
2024-03-13T23:53:43.581Z,86.70
2024-03-13T23:56:12.264Z,86.80
2024-03-13T23:58:39.081Z,86.70
